Time;durP1;ratioP1;P1;durP2;ratioP2;P2;SDS_P1;SDS_P2;PMS_P1;PMS_P2;Temp;Humidity;BMP_temperature;BMP_pressure;BME280_temperature;BME280_humidity;BME280_pressure;Samples;Min_cycle;Max_cycle;Signal;HPM_P1;HPM_P2
2021/12/13 00:00:06;;;;;;;89.93;19.33;;;9.60;99.90;;;;;;5100528;28;20098;-52
2021/12/13 00:02:48;;;;;;;65.50;17.40;;;9.50;99.90;;;;;;5099613;28;20069;-52
2021/12/13 00:05:35;;;;;;;56.20;17.15;;;9.60;99.90;;;;;;5100324;28;20066;-52
2021/12/13 00:08:06;;;;;;;88.13;19.50;;;9.50;99.90;;;;;;5100568;28;20044;-52
2021/12/13 00:10:43;;;;;;;88.10;19.45;;;9.60;99.90;;;;;;5099772;28;20068;-53
2021/12/13 00:13:36;;;;;;;68.07;17.70;;;9.60;99.90;;;;;;5100215;28;20047;-53
2021/12/13 00:16:04;;;;;;;78.93;16.95;;;9.60;99.90;;;;;;5100468;28;20048;-52
2021/12/13 00:18:35;;;;;;;64.43;17.42;;;9.60;99.90;;;;;;5099804;28;20044;-52
2021/12/13 00:21:13;;;;;;;58.05;15.75;;;9.60;99.90;;;;;;5100162;28;20040;-52
2021/12/13 00:23:58;;;;;;;57.30;17.80;;;9.60;99.90;;;;;;5098051;28;20040;-52
2021/12/13 00:26:34;;;;;;;60.90;17.30;;;9.60;99.90;;;;;;5099600;28;20048;-52
2021/12/13 00:29:12;;;;;;;57.03;16.48;;;9.60;99.90;;;;;;5100406;28;20048;-53
2021/12/13 00:31:50;;;;;;;63.15;17.23;;;9.60;99.90;;;;;;5098095;28;20490;-52
2021/12/13 00:34:28;;;;;;;71.35;19.50;;;9.60;99.90;;;;;;5099827;28;20036;-51
2021/12/13 00:37:04;;;;;;;55.58;17.52;;;9.60;99.90;;;;;;5097999;28;20048;-52
2021/12/13 00:39:35;;;;;;;77.85;19.55;;;9.70;99.90;;;;;;5099406;28;20052;-52
2021/12/13 00:42:03;;;;;;;81.35;19.80;;;9.60;99.90;;;;;;5099911;28;20040;-53
2021/12/13 00:44:44;;;;;;;77.25;21.33;;;9.60;99.90;;;;;;5098788;28;20044;-53
2021/12/13 00:47:28;;;;;;;91.13;20.95;;;9.60;99.90;;;;;;5099604;28;20894;-56
2021/12/13 00:50:02;;;;;;;106.18;23.10;;;9.60;99.90;;;;;;5099272;28;20066;-52
2021/12/13 00:52:31;;;;;;;104.20;24.50;;;9.60;99.90;;;;;;5079988;28;20041;-52
2021/12/13 00:54:59;;;;;;;97.25;23.83;;;9.60;99.90;;;;;;5079262;28;20132;-53
2021/12/13 00:57:31;;;;;;;82.63;24.30;;;9.60;99.90;;;;;;5078777;28;20040;-52
2021/12/13 01:00:06;;;;;;;89.93;24.17;;;9.60;99.90;;;;;;5079163;28;20045;-55
2021/12/13 01:02:40;;;;;;;109.07;24.27;;;9.60;99.90;;;;;;5078639;28;20271;-50
2021/12/13 01:05:17;;;;;;;115.25;25.73;;;9.60;99.90;;;;;;5077367;28;20911;-54
2021/12/13 01:08:17;;;;;;;92.65;23.52;;;9.60;99.90;;;;;;5079350;28;20125;-54
2021/12/13 01:11:27;;;;;;;131.55;25.08;;;9.60;99.90;;;;;;5077980;28;20519;-55
2021/12/13 01:14:16;;;;;;;95.95;21.45;;;9.60;99.90;;;;;;5032502;28;20056;-52
2021/12/13 01:17:00;;;;;;;103.85;22.08;;;9.50;99.90;;;;;;5078955;28;20826;-55
2021/12/13 01:20:00;;;;;;;113.93;23.38;;;9.60;99.90;;;;;;5078098;28;20055;-54
2021/12/13 01:27:49;;;;;;;90.72;20.88;;;9.60;99.90;;;;;;5078008;28;20109;-52
2021/12/13 01:30:23;;;;;;;108.10;23.20;;;9.60;99.90;;;;;;5078497;28;20045;-54
2021/12/13 01:32:52;;;;;;;77.88;19.55;;;9.60;99.90;;;;;;5078514;28;20041;-50
2021/12/13 01:35:23;;;;;;;104.88;20.55;;;9.50;99.90;;;;;;5077044;28;20044;-54
2021/12/13 01:37:53;;;;;;;64.78;18.08;;;9.60;99.90;;;;;;5078660;28;20094;-53
2021/12/13 01:40:27;;;;;;;59.30;16.80;;;9.60;99.90;;;;;;5078014;28;20079;-55
2021/12/13 01:43:18;;;;;;;61.92;17.60;;;9.60;99.90;;;;;;5078198;28;20404;-54
2021/12/13 01:45:48;;;;;;;63.75;17.83;;;9.60;99.90;;;;;;5078500;28;20044;-54
2021/12/13 01:48:30;;;;;;;40.72;16.08;;;9.70;99.90;;;;;;5077054;28;20532;-53
2021/12/13 01:51:04;;;;;;;;;;;9.70;99.90;;;;;;5084746;28;20055;-54
2021/12/13 01:53:39;;;;;;;70.93;17.63;;;9.70;99.90;;;;;;5097734;28;19950;-54
2021/12/13 02:02:09;;;;;;;56.75;18.40;;;9.70;99.90;;;;;;5096298;28;20059;-54
2021/12/13 02:04:36;;;;;;;59.60;19.70;;;9.70;99.90;;;;;;5098194;28;20048;-54
2021/12/13 02:07:03;;;;;;;54.25;19.52;;;9.70;99.90;;;;;;5098311;28;20032;-54
2021/12/13 02:09:37;;;;;;;57.90;20.35;;;9.70;99.90;;;;;;5098031;28;20048;-50
2021/12/13 02:12:11;;;;;;;73.63;22.00;;;9.70;99.90;;;;;;5098661;28;20055;-52
2021/12/13 02:16:55;;;;;;;75.68;21.95;;;9.60;99.90;;;;;;5097336;28;20032;-55
2021/12/13 02:17:35;;;;;;;75.75;21.33;;;9.70;99.90;;;;;;5098146;28;20056;-53
2021/12/13 02:20:08;;;;;;;82.80;23.23;;;9.70;99.90;;;;;;5096686;28;20062;-55
2021/12/13 02:22:43;;;;;;;81.78;23.15;;;9.70;99.90;;;;;;5096459;28;20108;-51
2021/12/13 02:25:15;;;;;;;82.20;23.20;;;9.60;99.90;;;;;;5100213;28;20033;-51
2021/12/13 02:27:47;;;;;;;92.50;24.13;;;9.60;99.90;;;;;;5101623;28;20039;-53
2021/12/13 02:30:34;;;;;;;63.53;21.88;;;9.60;99.90;;;;;;5102367;28;20120;-54
2021/12/13 02:33:01;;;;;;;78.18;24.65;;;9.60;99.90;;;;;;5102147;28;20072;-51
2021/12/13 02:35:30;;;;;;;85.35;24.70;;;9.60;99.90;;;;;;5101857;28;20475;-58
2021/12/13 02:37:58;;;;;;;82.68;24.83;;;9.70;99.90;;;;;;5102059;28;20047;-53
2021/12/13 02:40:24;;;;;;;77.50;23.83;;;9.60;99.90;;;;;;5101574;28;20040;-51
2021/12/13 02:42:51;;;;;;;90.30;25.10;;;9.60;99.90;;;;;;5101636;28;20069;-53
2021/12/13 02:45:26;;;;;;;81.60;22.17;;;9.60;99.90;;;;;;5100140;28;20048;-51
2021/12/13 02:48:03;;;;;;;73.80;24.00;;;9.60;99.90;;;;;;5101514;28;20040;-51
2021/12/13 02:50:52;;;;;;;70.40;22.42;;;9.60;99.90;;;;;;5099788;28;20043;-52
2021/12/13 02:53:28;;;;;;;67.97;21.90;;;9.50;99.90;;;;;;5080923;28;20067;-54
2021/12/13 02:55:55;;;;;;;79.55;21.52;;;9.50;99.90;;;;;;5080441;28;20074;-54
2021/12/13 02:58:23;;;;;;;68.97;22.33;;;9.50;99.90;;;;;;5081158;28;20079;-53
2021/12/13 03:01:12;;;;;;;68.43;20.65;;;9.50;99.90;;;;;;5081224;28;20037;-49
2021/12/13 03:03:43;;;;;;;63.55;18.25;;;9.50;99.90;;;;;;5081588;28;20040;-51
2021/12/13 03:06:12;;;;;;;68.18;21.13;;;9.40;99.90;;;;;;5080738;28;20097;-53
2021/12/13 03:08:45;;;;;;;64.18;19.20;;;9.50;99.90;;;;;;5081184;28;20064;-52
2021/12/13 03:11:23;;;;;;;63.63;19.25;;;9.40;99.90;;;;;;5080959;28;20056;-52
2021/12/13 03:13:56;;;;;;;57.83;17.33;;;9.50;99.90;;;;;;5080736;28;20045;-54
2021/12/13 03:16:29;;;;;;;52.08;18.33;;;9.40;99.90;;;;;;5081443;28;20045;-54
2021/12/13 03:19:10;;;;;;;58.33;19.02;;;9.40;99.90;;;;;;5080581;28;20059;-54
2021/12/13 03:22:08;;;;;;;63.58;19.25;;;9.40;99.90;;;;;;5079613;28;20105;-54
2021/12/13 03:24:34;;;;;;;57.05;18.20;;;9.40;99.90;;;;;;5025167;28;20056;-52
2021/12/13 03:27:21;;;;;;;52.47;18.88;;;9.40;99.90;;;;;;5080607;28;20048;-52
2021/12/13 03:29:47;;;;;;;53.28;18.85;;;9.40;99.90;;;;;;5080910;28;20036;-52
2021/12/13 03:32:15;;;;;;;65.50;20.40;;;9.40;99.90;;;;;;5079067;28;20052;-50
2021/12/13 03:34:55;;;;;;;52.25;18.60;;;9.40;99.90;;;;;;5080717;28;20041;-52
2021/12/13 03:37:24;;;;;;;48.42;19.35;;;9.40;99.90;;;;;;5079999;28;20070;-52
2021/12/13 03:39:55;;;;;;;49.05;19.45;;;9.40;99.90;;;;;;5080270;28;20065;-50
2021/12/13 03:42:36;;;;;;;67.20;20.00;;;9.40;99.90;;;;;;5080744;28;20055;-54
2021/12/13 03:45:15;;;;;;;50.17;19.33;;;9.40;99.90;;;;;;5080180;28;20041;-53
2021/12/13 03:47:44;;;;;;;60.22;18.90;;;9.30;99.90;;;;;;5080405;28;20049;-54
2021/12/13 03:50:16;;;;;;;57.20;18.75;;;9.40;99.90;;;;;;5080701;28;20044;-53
2021/12/13 03:52:45;;;;;;;54.88;19.35;;;9.30;99.90;;;;;;5059871;28;20045;-53
2021/12/13 03:55:15;;;;;;;70.15;19.85;;;9.30;99.90;;;;;;5060702;28;20044;-55
2021/12/13 03:57:46;;;;;;;50.13;17.85;;;9.30;99.90;;;;;;5059791;28;20044;-54
2021/12/13 04:00:14;;;;;;;46.42;18.02;;;9.30;99.90;;;;;;5060359;28;20041;-54
2021/12/13 04:02:42;;;;;;;47.20;17.17;;;9.30;99.90;;;;;;5060081;28;20108;-54
2021/12/13 04:05:16;;;;;;;39.80;14.93;;;9.20;99.90;;;;;;5060059;28;20041;-54
2021/12/13 04:07:53;;;;;;;42.80;13.93;;;9.20;99.90;;;;;;5060520;28;20045;-53
2021/12/13 04:10:30;;;;;;;39.80;13.63;;;9.30;99.90;;;;;;5059558;28;20041;-54
2021/12/13 04:13:00;;;;;;;37.03;12.65;;;9.20;99.90;;;;;;5059623;28;20047;-53
2021/12/13 04:21:32;;;;;;;31.92;11.05;;;9.20;99.90;;;;;;5059908;28;20084;-53
2021/12/13 04:24:03;;;;;;;31.55;10.60;;;9.20;99.90;;;;;;5059447;28;20124;-54
2021/12/13 04:26:30;;;;;;;28.17;10.33;;;9.20;99.90;;;;;;5059898;28;20070;-53
2021/12/13 04:28:59;;;;;;;28.15;9.30;;;9.20;99.90;;;;;;5059900;28;20455;-55
2021/12/13 04:31:31;;;;;;;27.25;8.73;;;9.10;99.90;;;;;;5059378;28;20131;-54
2021/12/13 04:34:00;;;;;;;23.40;8.85;;;9.20;99.90;;;;;;5059733;28;20063;-55
2021/12/13 04:36:36;;;;;;;28.38;8.90;;;9.10;99.90;;;;;;5058851;28;20043;-55
2021/12/13 04:39:10;;;;;;;22.98;8.15;;;9.10;99.90;;;;;;5041355;28;20104;-53
2021/12/13 04:41:44;;;;;;;24.70;7.75;;;9.20;99.90;;;;;;5059735;28;20528;-52
2021/12/13 04:44:19;;;;;;;18.25;7.93;;;9.20;99.90;;;;;;5058636;28;20509;-52
2021/12/13 04:46:50;;;;;;;20.00;7.43;;;9.10;99.90;;;;;;5059640;28;20037;-54
2021/12/13 04:49:19;;;;;;;21.17;7.88;;;9.20;99.90;;;;;;5058687;28;20037;-53
2021/12/13 04:51:53;;;;;;;27.45;10.05;;;9.10;99.90;;;;;;5084837;28;20051;-54
2021/12/13 04:54:19;;;;;;;18.50;7.38;;;9.10;99.90;;;;;;5099544;28;20048;-54
2021/12/13 04:56:47;;;;;;;17.75;6.47;;;9.10;99.90;;;;;;5099562;28;20110;-54
2021/12/13 04:59:14;;;;;;;14.95;6.50;;;9.10;99.90;;;;;;5099598;28;20092;-53
2021/12/13 05:01:43;;;;;;;16.15;6.13;;;9.10;99.90;;;;;;5098848;28;20040;-52
2021/12/13 05:04:11;;;;;;;14.05;6.07;;;9.10;99.90;;;;;;5099126;28;20040;-53
2021/12/13 05:06:39;;;;;;;13.88;5.43;;;9.10;99.90;;;;;;5098907;28;20115;-53
2021/12/13 05:09:09;;;;;;;14.02;5.35;;;9.10;99.90;;;;;;5099215;28;20048;-54
2021/12/13 05:11:40;;;;;;;15.07;5.43;;;9.10;99.90;;;;;;5099430;28;20411;-53
2021/12/13 05:14:07;;;;;;;11.88;5.43;;;9.00;99.90;;;;;;5098604;28;20067;-52
2021/12/13 05:16:54;;;;;;;11.15;5.63;;;9.00;99.90;;;;;;5099174;28;20040;-54
2021/12/13 05:19:37;;;;;;;13.75;5.40;;;9.00;99.90;;;;;;5097036;28;20413;-54
2021/12/13 05:22:06;;;;;;;10.65;5.38;;;9.00;99.90;;;;;;5098886;28;20080;-53
2021/12/13 05:24:40;;;;;;;12.23;4.75;;;9.00;99.90;;;;;;5099238;28;20039;-52
2021/12/13 05:27:10;;;;;;;14.50;5.20;;;9.00;99.90;;;;;;5098139;28;20561;-52
2021/12/13 05:29:46;;;;;;;11.30;4.63;;;9.00;99.90;;;;;;5098905;28;20053;-54
2021/12/13 05:32:17;;;;;;;12.57;4.88;;;9.00;99.90;;;;;;5098377;28;20073;-53
2021/12/13 05:35:01;;;;;;;13.45;5.93;;;9.00;99.90;;;;;;5098649;28;20048;-51
2021/12/13 05:37:46;;;;;;;11.65;5.43;;;9.00;99.90;;;;;;5097880;28;20391;-51
2021/12/13 05:40:45;;;;;;;12.52;6.10;;;8.90;99.90;;;;;;5098210;28;20114;-52
2021/12/13 05:43:21;;;;;;;14.20;6.55;;;9.00;99.90;;;;;;5064770;28;20067;-52
2021/12/13 05:46:08;;;;;;;13.15;6.22;;;9.00;99.90;;;;;;5098722;28;20088;-52
2021/12/13 05:48:34;;;;;;;14.90;7.53;;;9.00;99.90;;;;;;5098286;28;20060;-51
2021/12/13 05:51:07;;;;;;;12.73;7.45;;;8.90;99.90;;;;;;5091686;28;20053;-54
2021/12/13 05:53:44;;;;;;;12.55;7.75;;;9.00;99.90;;;;;;5077740;28;20096;-54
2021/12/13 05:56:16;;;;;;;16.92;7.95;;;9.00;99.90;;;;;;5078085;28;20056;-51
2021/12/13 05:58:50;;;;;;;14.93;8.23;;;8.90;99.90;;;;;;5078174;28;20069;-53
2021/12/13 06:01:30;;;;;;;19.55;7.75;;;8.90;99.90;;;;;;5077668;28;20090;-53
2021/12/13 06:04:10;;;;;;;16.20;9.05;;;9.00;99.90;;;;;;5078116;28;20133;-53
2021/12/13 06:06:49;;;;;;;16.55;8.40;;;9.00;99.90;;;;;;5077750;28;20075;-54
2021/12/13 06:09:40;;;;;;;16.52;8.48;;;9.00;99.90;;;;;;5076711;28;20579;-54
2021/12/13 06:12:09;;;;;;;13.90;9.30;;;9.00;99.90;;;;;;5078226;28;20036;-54
2021/12/13 06:14:35;;;;;;;14.88;8.18;;;8.90;99.90;;;;;;5077277;28;20041;-54
2021/12/13 06:17:14;;;;;;;14.93;8.50;;;9.00;99.90;;;;;;5078280;28;20040;-53
2021/12/13 06:19:42;;;;;;;18.33;9.13;;;8.90;99.90;;;;;;5077800;28;20045;-51
2021/12/13 06:22:14;;;;;;;16.20;8.45;;;8.90;99.90;;;;;;5077891;28;20044;-54
2021/12/13 06:24:44;;;;;;;19.77;9.10;;;8.90;99.90;;;;;;5078251;28;20596;-53
2021/12/13 06:27:27;;;;;;;19.70;8.43;;;9.00;99.90;;;;;;5077693;28;20051;-53
2021/12/13 06:30:03;;;;;;;18.58;9.52;;;8.90;99.90;;;;;;5077936;28;20094;-53
2021/12/13 06:32:34;;;;;;;17.25;9.07;;;8.90;99.90;;;;;;5077782;28;20049;-50
2021/12/13 06:35:29;;;;;;;17.15;9.10;;;8.90;99.90;;;;;;5077546;28;20062;-54
2021/12/13 06:37:58;;;;;;;19.05;9.60;;;8.90;99.90;;;;;;5076780;28;20052;-54
2021/12/13 06:40:27;;;;;;;19.80;9.52;;;8.90;99.90;;;;;;5077262;28;20051;-53
2021/12/13 06:43:22;;;;;;;16.92;8.57;;;8.90;99.90;;;;;;5076011;28;20511;-54
2021/12/13 06:45:48;;;;;;;20.50;10.65;;;8.90;99.90;;;;;;5077718;28;20055;-49
2021/12/13 06:48:14;;;;;;;20.95;9.68;;;8.90;99.90;;;;;;5077096;28;20068;-54
2021/12/13 06:50:40;;;;;;;19.05;9.50;;;8.90;99.90;;;;;;5081324;28;20037;-54
2021/12/13 06:53:18;;;;;;;18.25;9.65;;;8.90;99.90;;;;;;5097478;28;20446;-53
2021/12/13 06:55:45;;;;;;;20.73;9.68;;;8.80;99.90;;;;;;5097949;28;20126;-54
2021/12/13 06:58:21;;;;;;;17.48;10.13;;;8.80;99.90;;;;;;5097451;28;20074;-53
2021/12/13 07:00:51;;;;;;;23.58;9.68;;;8.90;99.90;;;;;;5097623;28;20052;-54
2021/12/13 07:03:32;;;;;;;17.48;10.20;;;8.90;99.90;;;;;;5098085;28;20485;-52
2021/12/13 07:06:00;;;;;;;19.73;10.98;;;8.80;99.90;;;;;;5097421;28;20044;-53
2021/12/13 07:08:33;;;;;;;17.08;10.07;;;8.80;99.90;;;;;;5096406;28;20101;-50
2021/12/13 07:11:12;;;;;;;19.65;9.60;;;8.80;99.90;;;;;;5096057;28;20063;-52
2021/12/13 07:14:03;;;;;;;19.88;10.18;;;8.80;99.90;;;;;;5100957;28;20040;-51
2021/12/13 07:16:33;;;;;;;19.17;10.25;;;8.80;99.90;;;;;;5101423;28;20047;-53
2021/12/13 07:19:18;;;;;;;21.58;10.63;;;8.80;99.90;;;;;;5100830;28;20048;-54
2021/12/13 07:21:54;;;;;;;18.45;10.27;;;8.80;99.90;;;;;;5099699;28;20051;-51
2021/12/13 07:24:26;;;;;;;24.38;11.25;;;8.80;99.90;;;;;;5099921;28;20056;-53
2021/12/13 07:26:53;;;;;;;20.30;10.50;;;8.80;99.90;;;;;;5100907;28;20048;-53
2021/12/13 07:29:44;;;;;;;19.35;11.30;;;8.80;99.90;;;;;;5101207;28;20051;-52
2021/12/13 07:32:27;;;;;;;23.20;10.60;;;8.80;99.90;;;;;;5099029;28;20054;-50
2021/12/13 07:35:01;;;;;;;20.70;10.40;;;8.80;99.90;;;;;;5101148;28;20044;-55
2021/12/13 07:37:49;;;;;;;20.42;10.30;;;8.80;99.90;;;;;;5101270;28;20454;-52
2021/12/13 07:40:24;;;;;;;21.52;10.70;;;8.80;99.90;;;;;;5100323;28;20845;-55
2021/12/13 07:43:26;;;;;;;17.88;10.10;;;8.80;99.90;;;;;;5100736;28;20080;-51
2021/12/13 07:46:24;;;;;;;19.02;10.65;;;8.80;99.90;;;;;;5096982;28;20056;-49
2021/12/13 07:48:59;;;;;;;19.25;10.27;;;8.80;99.90;;;;;;5097264;28;20063;-51
2021/12/13 07:51:27;;;;;;;19.52;11.00;;;8.80;99.90;;;;;;5090391;28;20110;-53
2021/12/13 07:53:58;;;;;;;20.80;11.57;;;8.70;99.90;;;;;;5080297;28;20059;-53
2021/12/13 07:56:36;;;;;;;20.73;11.82;;;8.80;99.90;;;;;;5080027;28;20048;-53
2021/12/13 07:59:10;;;;;;;23.10;12.20;;;8.80;99.90;;;;;;5080695;28;20052;-55
2021/12/13 08:02:05;;;;;;;20.65;11.20;;;8.80;99.90;;;;;;5079899;28;20041;-53
2021/12/13 08:04:33;;;;;;;20.75;11.82;;;8.80;99.90;;;;;;5080149;28;20040;-53
2021/12/13 08:07:08;;;;;;;19.38;11.60;;;8.80;99.90;;;;;;5080103;28;20086;-55
2021/12/13 08:09:49;;;;;;;22.83;12.27;;;8.80;99.90;;;;;;5080171;28;20056;-51
2021/12/13 08:12:22;;;;;;;20.17;12.02;;;8.80;99.90;;;;;;5080214;28;20036;-53
2021/12/13 08:14:53;;;;;;;20.38;12.73;;;8.80;99.90;;;;;;5079262;28;20321;-53
2021/12/13 08:17:31;;;;;;;19.27;12.95;;;8.80;99.90;;;;;;5079839;28;20656;-52
2021/12/13 08:20:01;;;;;;;23.77;13.43;;;8.90;99.90;;;;;;5080170;28;20037;-53
2021/12/13 08:22:29;;;;;;;22.90;12.93;;;8.90;99.90;;;;;;5079303;28;20050;-56
2021/12/13 08:25:02;;;;;;;23.00;13.63;;;8.80;99.90;;;;;;5080100;28;20033;-52
2021/12/13 08:27:32;;;;;;;22.45;13.25;;;8.90;99.90;;;;;;5078967;28;20052;-55
2021/12/13 08:30:12;;;;;;;23.48;13.13;;;8.90;99.90;;;;;;5079645;28;20075;-54
2021/12/13 08:32:52;;;;;;;21.58;13.80;;;8.90;99.90;;;;;;5079543;28;20044;-51
2021/12/13 08:35:18;;;;;;;25.48;14.13;;;8.90;99.90;;;;;;5078093;28;20260;-51
2021/12/13 08:37:45;;;;;;;25.35;15.73;;;9.00;99.90;;;;;;5078395;28;20496;-51
2021/12/13 08:40:19;;;;;;;25.15;15.55;;;9.00;99.90;;;;;;5078851;28;20056;-50
2021/12/13 08:42:46;;;;;;;27.90;16.27;;;9.00;99.90;;;;;;5079246;28;20052;-54
2021/12/13 08:45:31;;;;;;;25.58;15.35;;;9.00;99.90;;;;;;5079157;28;20041;-55
2021/12/13 08:48:02;;;;;;;25.00;14.75;;;9.00;99.90;;;;;;5079142;28;20037;-54
2021/12/13 08:50:50;;;;;;;27.23;16.15;;;9.00;99.90;;;;;;5081525;28;20044;-53
2021/12/13 08:53:38;;;;;;;28.23;15.77;;;9.00;99.90;;;;;;5098767;28;20138;-51
2021/12/13 08:56:12;;;;;;;26.00;15.88;;;9.10;99.90;;;;;;5099521;28;20866;-55
2021/12/13 08:58:52;;;;;;;24.25;15.50;;;9.10;99.90;;;;;;5099703;28;20494;-53
2021/12/13 09:01:18;;;;;;;31.20;17.05;;;9.10;99.90;;;;;;5098971;28;20077;-53
2021/12/13 09:03:50;;;;;;;28.20;16.45;;;9.10;99.90;;;;;;5099517;28;20044;-53
2021/12/13 09:06:16;;;;;;;;;;;9.10;99.90;;;;;;5099181;28;20079;-54
2021/12/13 09:08:44;;;;;;;29.70;16.77;;;9.10;99.90;;;;;;5099226;28;20549;-55
2021/12/13 09:11:16;;;;;;;24.27;16.63;;;9.10;99.90;;;;;;5099116;28;20048;-51
2021/12/13 09:13:54;;;;;;;27.55;17.33;;;9.10;99.90;;;;;;5098676;28;20036;-54
2021/12/13 09:16:24;;;;;;;25.65;17.20;;;9.20;99.90;;;;;;5099447;28;20044;-53
2021/12/13 09:19:30;;;;;;;28.08;18.27;;;9.20;99.90;;;;;;5098286;28;20090;-52
2021/12/13 09:22:07;;;;;;;24.98;16.30;;;9.20;99.90;;;;;;5019431;28;20057;-54
2021/12/13 09:24:39;;;;;;;28.52;18.15;;;9.20;99.90;;;;;;5092964;28;20060;-53
2021/12/13 09:27:10;;;;;;;26.17;17.58;;;9.30;99.90;;;;;;5098533;28;20051;-54
2021/12/13 09:29:52;;;;;;;29.20;18.25;;;9.30;99.90;;;;;;5098783;28;20588;-55
2021/12/13 09:32:18;;;;;;;25.13;17.30;;;9.30;99.90;;;;;;5096980;28;20059;-53
2021/12/13 09:34:45;;;;;;;26.75;17.05;;;9.20;99.90;;;;;;5097887;28;20032;-55
2021/12/13 09:37:12;;;;;;;24.95;16.77;;;9.20;99.90;;;;;;5097512;28;20048;-54
2021/12/13 09:39:40;;;;;;;26.40;17.10;;;9.30;99.90;;;;;;5098265;28;20044;-54
2021/12/13 09:42:11;;;;;;;26.45;17.58;;;9.30;99.90;;;;;;5098958;28;20511;-55
2021/12/13 09:45:01;;;;;;;28.42;17.98;;;9.30;99.90;;;;;;5097877;28;20058;-54
2021/12/13 09:47:38;;;;;;;24.45;16.85;;;9.30;99.90;;;;;;5098603;28;20071;-54
2021/12/13 09:50:10;;;;;;;23.30;14.57;;;9.30;99.90;;;;;;5098885;28;20099;-51
2021/12/13 09:52:39;;;;;;;25.35;16.67;;;9.30;99.90;;;;;;5076256;28;20066;-55
2021/12/13 09:55:16;;;;;;;24.77;15.10;;;9.30;99.90;;;;;;5078385;28;20071;-54
2021/12/13 09:57:55;;;;;;;27.75;16.00;;;9.30;99.90;;;;;;5077904;28;20047;-55
2021/12/13 10:00:29;;;;;;;21.50;14.88;;;9.40;99.90;;;;;;5077970;28;20052;-54
2021/12/13 10:03:00;;;;;;;23.30;15.57;;;9.40;99.90;;;;;;5078615;28;20048;-50
2021/12/13 10:05:30;;;;;;;20.98;14.45;;;9.30;99.90;;;;;;5077620;28;20039;-54
2021/12/13 10:08:03;;;;;;;21.42;14.63;;;9.30;99.90;;;;;;5078328;28;20068;-52
2021/12/13 10:10:44;;;;;;;20.15;14.25;;;9.30;99.90;;;;;;5077560;28;20067;-54
2021/12/13 10:13:15;;;;;;;24.30;14.75;;;9.30;99.90;;;;;;5077741;28;20044;-52
2021/12/13 10:15:50;;;;;;;22.37;15.33;;;9.40;99.90;;;;;;5078283;28;20095;-54
2021/12/13 10:18:23;;;;;;;21.67;14.35;;;9.30;99.90;;;;;;5076318;28;20040;-52
2021/12/13 10:20:53;;;;;;;22.58;14.85;;;9.40;99.90;;;;;;5078504;28;20059;-51
2021/12/13 10:23:23;;;;;;;22.15;14.60;;;9.40;99.90;;;;;;5076208;28;20055;-52
2021/12/13 10:25:51;;;;;;;23.70;14.65;;;9.40;99.90;;;;;;5077772;28;20056;-53
2021/12/13 10:28:20;;;;;;;21.90;13.98;;;9.50;99.90;;;;;;5077723;28;20400;-52
2021/12/13 10:30:53;;;;;;;21.67;14.02;;;9.50;99.90;;;;;;5077659;28;20060;-53
2021/12/13 10:33:21;;;;;;;20.65;13.68;;;9.60;99.90;;;;;;5077923;28;20051;-54
2021/12/13 10:35:49;;;;;;;22.00;14.00;;;9.50;99.90;;;;;;5077522;28;20044;-52
2021/12/13 10:38:29;;;;;;;24.58;13.82;;;9.60;99.90;;;;;;5077946;28;20097;-52
2021/12/13 10:41:01;;;;;;;20.63;14.02;;;9.60;99.90;;;;;;5077352;28;20041;-51
2021/12/13 10:43:34;;;;;;;22.98;14.68;;;9.60;99.90;;;;;;5077485;28;20043;-53
2021/12/13 10:46:07;;;;;;;20.05;13.38;;;9.60;99.90;;;;;;5079772;28;20049;-54
2021/12/13 10:48:42;;;;;;;19.73;13.40;;;9.60;99.90;;;;;;5081454;28;20054;-50
2021/12/13 10:51:12;;;;;;;19.00;13.23;;;9.60;99.90;;;;;;5089287;28;20083;-54
2021/12/13 10:53:41;;;;;;;20.02;13.35;;;9.60;99.90;;;;;;5101287;28;20681;-52
2021/12/13 10:56:13;;;;;;;20.70;13.45;;;9.60;99.90;;;;;;5101541;28;20044;-54
2021/12/13 10:58:44;;;;;;;21.48;13.23;;;9.60;99.90;;;;;;5102101;28;20044;-54
2021/12/13 11:01:14;;;;;;;19.05;13.32;;;9.60;99.90;;;;;;5099737;28;20044;-55
2021/12/13 11:03:40;;;;;;;18.25;13.25;;;9.60;99.90;;;;;;5101747;28;20054;-53
2021/12/13 11:06:10;;;;;;;20.77;13.95;;;9.50;99.90;;;;;;5099809;28;20068;-54
2021/12/13 11:08:42;;;;;;;20.88;14.02;;;9.60;99.90;;;;;;5101577;28;20114;-53
2021/12/13 11:11:22;;;;;;;20.63;12.77;;;9.60;99.90;;;;;;5101486;28;20044;-54
2021/12/13 11:13:56;;;;;;;21.58;13.23;;;9.60;99.90;;;;;;5099452;28;20083;-53
2021/12/13 11:16:29;;;;;;;20.00;13.55;;;9.60;99.90;;;;;;5101399;28;20100;-54
2021/12/13 11:18:56;;;;;;;19.77;12.95;;;9.60;99.90;;;;;;5100792;28;20048;-53
2021/12/13 11:21:26;;;;;;;19.08;13.48;;;9.70;99.90;;;;;;5101269;28;20510;-53
2021/12/13 11:23:54;;;;;;;20.25;12.95;;;9.70;99.90;;;;;;5101494;28;20119;-54
2021/12/13 11:26:24;;;;;;;24.10;13.48;;;9.80;99.90;;;;;;5100970;28;20059;-54
2021/12/13 11:28:50;;;;;;;19.52;12.32;;;9.80;99.90;;;;;;5101509;28;20094;-53
2021/12/13 11:31:31;;;;;;;23.55;13.75;;;9.80;99.90;;;;;;5100571;28;20657;-53
2021/12/13 11:34:03;;;;;;;20.20;14.13;;;9.80;99.90;;;;;;5101121;28;20051;-53
2021/12/13 11:37:07;;;;;;;19.90;12.50;;;9.90;99.90;;;;;;5100426;28;20067;-54
2021/12/13 11:40:01;;;;;;;19.33;13.13;;;9.90;99.90;;;;;;5100529;28;20055;-54
2021/12/13 11:43:03;;;;;;;22.88;13.10;;;9.90;99.90;;;;;;5100859;28;20048;-53
2021/12/13 11:45:50;;;;;;;22.20;12.80;;;10.00;99.90;;;;;;5100848;28;20076;-53
2021/12/13 11:48:41;;;;;;;21.13;11.57;;;10.00;99.90;;;;;;5100347;28;20072;-53
2021/12/13 11:51:42;;;;;;;19.60;13.13;;;10.00;99.90;;;;;;5092782;28;20084;-52
2021/12/13 11:54:45;;;;;;;20.70;13.98;;;9.90;99.90;;;;;;5080519;28;20060;-53
2021/12/13 11:57:53;;;;;;;19.92;12.45;;;10.00;99.90;;;;;;5077709;28;20412;-54
2021/12/13 12:00:56;;;;;;;18.65;12.18;;;9.90;99.90;;;;;;5080217;28;20104;-55
2021/12/13 12:03:27;;;;;;;20.25;12.90;;;9.90;99.90;;;;;;5080592;28;20048;-54
2021/12/13 12:06:27;;;;;;;21.30;13.70;;;9.90;99.90;;;;;;5079612;28;20064;-53
2021/12/13 12:09:22;;;;;;;21.55;12.20;;;9.80;99.90;;;;;;5080064;28;20044;-53
2021/12/13 12:12:30;;;;;;;21.42;13.10;;;9.70;99.90;;;;;;5080117;28;20060;-52
2021/12/13 12:15:01;;;;;;;24.42;14.23;;;9.80;99.90;;;;;;5079446;28;20045;-53
2021/12/13 12:17:30;;;;;;;26.08;14.82;;;9.70;99.90;;;;;;5079700;28;20102;-51
2021/12/13 12:19:57;;;;;;;23.55;14.52;;;9.70;99.90;;;;;;5080261;28;20100;-53
2021/12/13 12:22:30;;;;;;;23.63;14.52;;;9.70;99.90;;;;;;5079524;28;20070;-50
2021/12/13 12:24:59;;;;;;;26.35;16.00;;;9.70;99.90;;;;;;5080059;28;20066;-52
2021/12/13 12:27:31;;;;;;;27.65;15.30;;;9.70;99.90;;;;;;5079350;28;20124;-54
2021/12/13 12:29:59;;;;;;;;;;;9.80;99.90;;;;;;5079161;28;20508;-53
2021/12/13 12:32:29;;;;;;;23.70;14.73;;;9.80;99.90;;;;;;5079717;28;19931;-52
2021/12/13 12:35:04;;;;;;;24.27;15.63;;;9.70;99.90;;;;;;5079354;28;20056;-54
2021/12/13 12:38:02;;;;;;;27.05;15.02;;;9.80;99.90;;;;;;5079598;28;20044;-54
2021/12/13 12:40:52;;;;;;;23.55;14.43;;;9.80;99.90;;;;;;5078657;28;20052;-52
2021/12/13 12:43:22;;;;;;;25.52;15.70;;;9.80;99.90;;;;;;5079001;28;20041;-52
2021/12/13 12:45:54;;;;;;;25.40;14.88;;;9.70;99.90;;;;;;5079800;28;20041;-52
2021/12/13 12:48:22;;;;;;;25.25;15.63;;;9.70;99.90;;;;;;5078931;28;20043;-54
2021/12/13 12:50:58;;;;;;;22.73;14.07;;;9.80;99.90;;;;;;5084408;28;20044;-54
2021/12/13 12:53:33;;;;;;;24.55;13.80;;;9.80;99.90;;;;;;5099060;28;20056;-54
2021/12/13 12:56:05;;;;;;;22.75;13.45;;;9.80;99.90;;;;;;5099606;28;20043;-53
2021/12/13 12:59:03;;;;;;;22.67;14.13;;;9.80;99.90;;;;;;5099709;28;20051;-53
2021/12/13 13:01:48;;;;;;;21.50;13.93;;;9.80;99.90;;;;;;5093299;28;20048;-52
2021/12/13 13:04:24;;;;;;;23.30;13.43;;;9.80;99.90;;;;;;5099307;28;20040;-54
2021/12/13 13:07:00;;;;;;;21.30;13.00;;;9.80;99.90;;;;;;5099071;28;20051;-52
2021/12/13 13:09:44;;;;;;;20.95;12.43;;;9.80;99.90;;;;;;5098075;28;20040;-51
2021/12/13 13:12:28;;;;;;;21.83;13.13;;;9.80;99.90;;;;;;5099319;28;20058;-52
2021/12/13 13:14:58;;;;;;;22.15;13.23;;;9.90;99.90;;;;;;5098542;28;20044;-51
2021/12/13 13:17:27;;;;;;;19.08;11.95;;;9.80;99.90;;;;;;5099108;28;20043;-50
2021/12/13 13:19:57;;;;;;;19.38;12.10;;;9.90;99.90;;;;;;5099122;28;20055;-52
2021/12/13 13:22:34;;;;;;;23.00;11.95;;;9.90;99.90;;;;;;5098783;28;20040;-53
2021/12/13 13:25:22;;;;;;;19.58;12.05;;;9.90;99.90;;;;;;5099103;28;20056;-52
2021/12/13 13:27:49;;;;;;;21.20;12.07;;;9.90;99.90;;;;;;5096950;28;20048;-53
2021/12/13 13:30:37;;;;;;;20.73;12.30;;;9.90;99.90;;;;;;5098785;28;20415;-52
2021/12/13 13:33:03;;;;;;;22.55;12.70;;;9.90;99.90;;;;;;5099072;28;20123;-51
2021/12/13 13:35:29;;;;;;;21.88;12.55;;;9.90;99.90;;;;;;5098446;28;20083;-53
2021/12/13 13:37:55;;;;;;;19.83;11.18;;;9.90;99.90;;;;;;5097491;28;20060;-53